createdAt,value
2022-10-04T00:01:47.405Z,1.1
2022-10-04T00:03:37.279Z,1.1
2022-10-04T00:05:33.811Z,1.3
2022-10-04T00:07:37.469Z,1.3
2022-10-04T00:09:40.770Z,1.3
2022-10-04T00:11:36.281Z,1
2022-10-04T00:13:36.520Z,1.1
2022-10-04T00:15:36.265Z,1.4
2022-10-04T00:17:34.003Z,1.2
2022-10-04T00:19:41.437Z,1.3
2022-10-04T00:22:03.885Z,1.2
2022-10-04T00:23:49.000Z,1.4
2022-10-04T00:25:35.927Z,1.2
2022-10-04T00:27:35.831Z,1.4
2022-10-04T00:29:37.373Z,1.3
2022-10-04T00:32:04.528Z,1.6
2022-10-04T00:33:37.634Z,1.5
2022-10-04T00:35:49.937Z,1.3
2022-10-04T00:37:55.223Z,1.3
2022-10-04T00:39:42.913Z,1.2
2022-10-04T00:41:44.285Z,1.7
2022-10-04T00:43:41.499Z,1.2
2022-10-04T00:45:40.302Z,1.5
2022-10-04T00:47:49.393Z,1.4
2022-10-04T00:49:40.126Z,1.5
2022-10-04T00:51:42.221Z,1.5
2022-10-04T00:53:44.160Z,1.4
2022-10-04T00:55:43.496Z,1.5
2022-10-04T00:57:42.697Z,1.4
2022-10-04T00:59:40.498Z,1.5
2022-10-04T01:01:37.482Z,1.3
2022-10-04T01:03:41.153Z,1.9
2022-10-04T01:05:40.520Z,1.7
2022-10-04T01:07:41.435Z,1.6
2022-10-04T01:09:45.666Z,1.5
2022-10-04T01:11:44.582Z,1.5
2022-10-04T01:13:40.688Z,1.4
2022-10-04T01:15:44.297Z,1.6
2022-10-04T01:17:38.007Z,1.3
2022-10-04T01:19:38.464Z,1.5
2022-10-04T01:21:38.473Z,1.6
2022-10-04T01:23:41.221Z,1.5
2022-10-04T01:25:48.405Z,1.5
2022-10-04T01:27:42.276Z,2
2022-10-04T01:29:38.808Z,1.6
2022-10-04T01:31:42.263Z,1.6
2022-10-04T01:33:39.202Z,1.4
2022-10-04T01:35:39.202Z,1.8
2022-10-04T01:37:39.836Z,1.9
2022-10-04T01:39:39.833Z,1.8
2022-10-04T01:41:45.675Z,1.9
2022-10-04T01:43:43.289Z,1.6
2022-10-04T01:45:44.905Z,1.8
2022-10-04T01:47:43.749Z,1.7
2022-10-04T01:49:43.189Z,1.5
2022-10-04T01:51:48.121Z,1.9
2022-10-04T01:53:45.491Z,1.7
2022-10-04T01:55:44.117Z,1.8
2022-10-04T01:57:46.907Z,1.9
2022-10-04T01:59:48.265Z,1.5
2022-10-04T02:01:47.166Z,1.6
2022-10-04T02:03:44.833Z,1.6
2022-10-04T02:05:50.350Z,1.6
2022-10-04T02:07:42.178Z,1.9
2022-10-04T02:09:45.673Z,1.6
2022-10-04T02:11:44.668Z,1.8
2022-10-04T02:13:44.295Z,2
2022-10-04T02:15:42.807Z,1.5
2022-10-04T02:17:43.709Z,1.7
2022-10-04T02:19:43.115Z,1.8
2022-10-04T02:21:43.893Z,1.5
2022-10-04T02:23:44.259Z,1.8
2022-10-04T02:25:42.627Z,1.7
2022-10-04T02:27:42.765Z,1.7
2022-10-04T02:29:42.986Z,1.6
2022-10-04T02:31:43.962Z,1.6
2022-10-04T02:33:45.414Z,1.9
2022-10-04T02:35:46.359Z,1.9
2022-10-04T02:37:44.432Z,2.1
2022-10-04T02:39:47.326Z,2
2022-10-04T02:41:49.156Z,2.2
2022-10-04T02:43:50.057Z,2.2
2022-10-04T02:45:50.394Z,2
2022-10-04T02:47:47.382Z,2
2022-10-04T02:49:47.769Z,1.9
2022-10-04T02:51:48.677Z,2.2
2022-10-04T02:53:52.739Z,2
2022-10-04T02:55:45.032Z,2
2022-10-04T02:57:45.284Z,2.1
2022-10-04T02:59:44.974Z,2.2
2022-10-04T03:01:51.579Z,1.9
2022-10-04T03:03:46.724Z,2
2022-10-04T03:05:55.625Z,1.8
2022-10-04T03:07:46.283Z,2.4
2022-10-04T03:09:45.987Z,1.9
2022-10-04T03:11:46.637Z,2.1
2022-10-04T03:13:49.211Z,2.1
2022-10-04T03:15:47.590Z,1.9
2022-10-04T03:17:46.126Z,2.1
2022-10-04T03:19:48.419Z,2
2022-10-04T03:21:49.338Z,2.1
2022-10-04T03:23:48.982Z,1.8
2022-10-04T03:25:51.344Z,1.9
2022-10-04T03:27:47.194Z,1.9
2022-10-04T03:29:47.578Z,1.9
2022-10-04T03:31:49.761Z,2.2
2022-10-04T03:33:48.426Z,2
2022-10-04T03:35:51.676Z,2.1
2022-10-04T03:37:47.478Z,2.2
2022-10-04T03:39:49.620Z,2.1
2022-10-04T03:41:47.869Z,2.1
2022-10-04T03:43:49.256Z,2
2022-10-04T03:45:48.504Z,2.1
2022-10-04T03:47:49.980Z,2.4
2022-10-04T03:49:51.149Z,2.2
2022-10-04T03:51:50.180Z,2.1
2022-10-04T03:53:50.996Z,2.1
2022-10-04T03:55:48.477Z,1.9
2022-10-04T03:57:48.565Z,2
2022-10-04T03:59:49.692Z,2
2022-10-04T04:01:59.644Z,2.3
2022-10-04T04:03:58.308Z,2.1
2022-10-04T04:05:53.125Z,2.3
2022-10-04T04:07:57.863Z,2.1
2022-10-04T04:09:57.864Z,2
2022-10-04T04:11:50.817Z,1.9
2022-10-04T04:13:57.378Z,2
2022-10-04T04:15:50.200Z,2
2022-10-04T04:17:51.891Z,2.2
2022-10-04T04:19:49.785Z,2.2
2022-10-04T04:21:52.900Z,2.1
2022-10-04T04:23:55.821Z,2
2022-10-04T04:25:53.855Z,2
2022-10-04T04:27:55.505Z,2.1
2022-10-04T04:29:52.089Z,2.2
2022-10-04T04:31:53.678Z,2
2022-10-04T04:33:56.367Z,2.4
2022-10-04T04:35:55.218Z,2.6
2022-10-04T04:38:13.418Z,2.2
2022-10-04T04:39:52.895Z,2.1
2022-10-04T04:41:51.713Z,2.7
2022-10-04T04:43:51.493Z,1.8
2022-10-04T04:46:15.065Z,2.2
2022-10-04T04:47:53.328Z,2.1
2022-10-04T04:49:52.455Z,2
2022-10-04T04:51:52.091Z,2.3
2022-10-04T04:53:54.781Z,2.1
2022-10-04T04:56:03.930Z,2.1
2022-10-04T04:57:55.697Z,2.1
2022-10-04T04:59:56.686Z,2
2022-10-04T05:01:52.366Z,1.9
2022-10-04T05:04:01.454Z,2.2
2022-10-04T05:05:52.958Z,2.2
2022-10-04T05:08:11.822Z,1.8
2022-10-04T05:09:52.795Z,2.1
2022-10-04T05:11:58.029Z,2
2022-10-04T05:13:56.682Z,2
2022-10-04T05:15:58.428Z,2.1
2022-10-04T05:17:53.323Z,1.9
2022-10-04T05:19:57.995Z,1.9
2022-10-04T05:21:56.057Z,1.6
2022-10-04T05:23:55.722Z,1.7
2022-10-04T05:25:54.073Z,2.2
2022-10-04T05:27:55.065Z,2
2022-10-04T05:30:04.310Z,2
2022-10-04T05:32:04.576Z,1.8
2022-10-04T05:33:57.327Z,2.2
2022-10-04T05:36:16.174Z,1.7
2022-10-04T05:38:03.884Z,2.1
2022-10-04T05:40:05.546Z,2
2022-10-04T05:42:03.439Z,1.8
2022-10-04T05:43:56.898Z,2
2022-10-04T05:46:19.661Z,2.2
2022-10-04T05:47:57.047Z,2.2
2022-10-04T05:49:58.284Z,2.1
2022-10-04T05:51:59.217Z,1.6
2022-10-04T05:53:59.451Z,1.7
2022-10-04T05:56:05.277Z,1.8
2022-10-04T05:58:15.951Z,1.8
2022-10-04T06:00:18.156Z,2.1
2022-10-04T06:02:14.337Z,1.7
2022-10-04T06:04:14.466Z,2
2022-10-04T06:06:04.695Z,1.7
2022-10-04T06:08:02.175Z,1.8
2022-10-04T06:10:10.785Z,1.6
2022-10-04T06:12:07.314Z,1.5
2022-10-04T06:14:28.641Z,1.8
2022-10-04T06:16:11.614Z,1.6
2022-10-04T06:18:15.328Z,1.6
2022-10-04T06:20:12.356Z,1.7
2022-10-04T06:22:13.545Z,1.5
2022-10-04T06:24:04.136Z,1.6
2022-10-04T06:26:03.653Z,1.7
2022-10-04T06:28:12.823Z,1.7
2022-10-04T06:30:03.508Z,1.8
2022-10-04T06:32:20.830Z,1.8
2022-10-04T06:34:17.912Z,1.5
2022-10-04T06:36:17.774Z,1.8
2022-10-04T06:38:24.991Z,1.4
2022-10-04T06:40:21.044Z,1.8
2022-10-04T06:42:16.029Z,1.7
2022-10-04T06:44:18.584Z,1.3
2022-10-04T06:46:10.936Z,1.4
2022-10-04T06:48:16.598Z,1.5
2022-10-04T06:50:13.560Z,1.5
2022-10-04T06:52:18.502Z,1.4
2022-10-04T06:54:13.459Z,1.4
2022-10-04T06:56:15.953Z,1.5
2022-10-04T06:58:30.614Z,1.5
2022-10-04T07:00:09.145Z,1.4
2022-10-04T07:02:07.897Z,1.4
2022-10-04T07:04:18.779Z,1.4
2022-10-04T07:06:05.006Z,1.3
2022-10-04T07:08:10.692Z,1.4
2022-10-04T07:10:18.459Z,1.3
2022-10-04T07:12:06.624Z,1.6
2022-10-04T07:14:12.099Z,1.4
2022-10-04T07:16:08.671Z,1.7
2022-10-04T07:18:07.474Z,1.6
2022-10-04T07:20:06.191Z,1.3
2022-10-04T07:22:15.417Z,1.4
2022-10-04T07:24:08.851Z,1.4
2022-10-04T07:26:12.630Z,1.7
2022-10-04T07:28:14.294Z,1.4
2022-10-04T07:30:07.860Z,2.1
2022-10-04T07:32:11.299Z,1.9
2022-10-04T07:34:10.142Z,1.6
2022-10-04T07:36:09.248Z,1.7
2022-10-04T07:38:15.332Z,1.6
2022-10-04T07:40:17.498Z,1.4
2022-10-04T07:42:17.925Z,1.4
2022-10-04T07:44:13.741Z,1.2
2022-10-04T07:46:18.888Z,1.5
2022-10-04T07:48:13.495Z,1.3
2022-10-04T07:50:23.464Z,1.3
2022-10-04T07:52:25.967Z,1.3
2022-10-04T07:54:18.259Z,1.4
2022-10-04T07:56:13.413Z,1.6
2022-10-04T07:58:24.677Z,1.4
2022-10-04T08:00:15.937Z,1.3
2022-10-04T08:02:25.600Z,1.5
2022-10-04T08:04:21.332Z,1.2
2022-10-04T08:06:15.518Z,1.3
2022-10-04T08:08:25.267Z,1.4
2022-10-04T08:10:17.588Z,1
2022-10-04T08:12:18.504Z,1.4
2022-10-04T08:14:25.041Z,1.2
2022-10-04T08:16:20.395Z,1.4
2022-10-04T08:18:26.098Z,1.5
2022-10-04T08:20:27.848Z,1.5
2022-10-04T08:22:22.288Z,1.5
2022-10-04T08:24:18.678Z,1.5
2022-10-04T08:26:20.737Z,1.3
2022-10-04T08:28:23.171Z,1.3
2022-10-04T08:30:15.227Z,1.5
2022-10-04T08:32:29.054Z,1.7
2022-10-04T08:34:30.437Z,1.6
2022-10-04T08:36:24.476Z,1.3
2022-10-04T08:38:26.213Z,1.1
2022-10-04T08:40:42.132Z,1.4
2022-10-04T08:42:45.789Z,1.3
2022-10-04T08:44:41.734Z,1.4
2022-10-04T08:46:48.657Z,1.4
2022-10-04T08:48:39.971Z,1.5
2022-10-04T08:50:31.167Z,1.3
2022-10-04T08:52:35.093Z,1.1
2022-10-04T08:54:42.212Z,1.4
2022-10-04T08:56:23.615Z,1.6
2022-10-04T08:58:20.400Z,1.9
2022-10-04T09:00:23.231Z,1.4
2022-10-04T09:02:40.351Z,2.1
2022-10-04T09:04:48.052Z,1.7
2022-10-04T09:06:33.069Z,1.4
2022-10-04T09:08:46.690Z,1.6
2022-10-04T09:10:34.590Z,1.6
2022-10-04T09:12:35.681Z,1.5
2022-10-04T09:14:33.925Z,1.5
2022-10-04T09:16:18.633Z,1.4
2022-10-04T09:18:27.311Z,1.6
2022-10-04T09:20:39.665Z,1.3
2022-10-04T09:22:18.820Z,1.5
2022-10-04T09:24:51.515Z,1.6
2022-10-04T09:26:22.582Z,1.4
2022-10-04T09:28:38.826Z,1.5
2022-10-04T09:30:19.236Z,1.9
2022-10-04T09:32:31.608Z,1.5
2022-10-04T09:34:36.443Z,1.5
2022-10-04T09:36:35.232Z,1.6
2022-10-04T09:38:36.048Z,1.6
2022-10-04T09:40:45.417Z,1.5
2022-10-04T09:42:36.321Z,1.3
2022-10-04T09:44:46.564Z,1.4
2022-10-04T09:46:43.104Z,1.2
2022-10-04T09:48:26.564Z,1.6
2022-10-04T09:50:46.790Z,1.5
2022-10-04T09:52:32.499Z,1.5
2022-10-04T09:54:50.653Z,1.3
2022-10-04T09:56:37.755Z,1.4
2022-10-04T09:58:39.885Z,1.3
2022-10-04T10:00:23.927Z,1.4
2022-10-04T10:02:44.783Z,1.4
2022-10-04T10:04:38.366Z,1.3
2022-10-04T10:06:47.897Z,1.4
2022-10-04T10:08:32.962Z,1.4
2022-10-04T10:10:34.092Z,1.6
2022-10-04T10:12:40.068Z,1.3
2022-10-04T10:14:45.543Z,1.2
2022-10-04T10:16:37.234Z,1.4
2022-10-04T10:18:33.906Z,1.3
2022-10-04T10:20:48.860Z,1.2
2022-10-04T10:22:41.069Z,1.1
2022-10-04T10:24:42.897Z,1.4
2022-10-04T10:26:46.146Z,1.5
2022-10-04T10:28:44.986Z,1.1
2022-10-04T10:30:29.612Z,1.2
2022-10-04T10:32:44.007Z,1.2
2022-10-04T10:34:40.891Z,1.3
2022-10-04T10:36:41.240Z,1.4
2022-10-04T10:38:39.771Z,1.4
2022-10-04T10:40:42.126Z,1.5
2022-10-04T10:42:52.724Z,1.5
2022-10-04T10:44:40.634Z,1.3
2022-10-04T10:46:45.038Z,1.5
2022-10-04T10:48:39.556Z,1.5
2022-10-04T10:50:50.903Z,1.2
2022-10-04T10:52:54.765Z,1.3
2022-10-04T10:54:49.212Z,1.2
2022-10-04T10:56:46.331Z,1.1
2022-10-04T10:58:55.961Z,1.2
2022-10-04T11:00:41.993Z,1.4
2022-10-04T11:03:12.223Z,1.4
2022-10-04T11:04:49.340Z,1.4
2022-10-04T11:06:55.273Z,1.3
2022-10-04T11:09:01.583Z,1.3
2022-10-04T11:10:59.863Z,1.4
2022-10-04T11:12:54.090Z,1.4
2022-10-04T11:14:52.250Z,1.2
2022-10-04T11:17:01.711Z,1.2
2022-10-04T11:18:58.159Z,1.5
2022-10-04T11:21:01.650Z,1.6
2022-10-04T11:23:01.989Z,1.6
2022-10-04T11:24:46.211Z,1.5
2022-10-04T11:26:59.738Z,1.3
2022-10-04T11:28:42.067Z,1.2
2022-10-04T11:31:00.291Z,1.3
2022-10-04T11:33:05.226Z,1.3
2022-10-04T11:35:02.726Z,1.4
2022-10-04T11:36:45.093Z,1.4
2022-10-04T11:38:50.315Z,1.4
2022-10-04T11:40:47.885Z,1.4
2022-10-04T11:42:52.945Z,1.5
2022-10-04T11:45:03.483Z,1.2
2022-10-04T11:46:40.931Z,1.7
2022-10-04T11:48:47.235Z,1.2
2022-10-04T11:50:43.946Z,1.8
2022-10-04T11:53:00.805Z,1.6
2022-10-04T11:55:05.804Z,1.5
2022-10-04T11:56:48.463Z,1.6
2022-10-04T11:58:48.554Z,1.4
2022-10-04T12:00:55.666Z,1.5
2022-10-04T12:03:05.773Z,1.3
2022-10-04T12:04:58.204Z,2
2022-10-04T12:06:49.454Z,1.5
2022-10-04T12:08:52.589Z,1.3
2022-10-04T12:10:39.612Z,1.4
2022-10-04T12:13:05.475Z,1.2
2022-10-04T12:14:56.355Z,1.3
2022-10-04T12:17:02.934Z,1.1
2022-10-04T12:19:08.146Z,1
2022-10-04T12:20:57.584Z,1.4
2022-10-04T12:22:56.577Z,2
2022-10-04T12:24:56.064Z,1.6
2022-10-04T12:26:58.212Z,1.6
2022-10-04T12:29:03.752Z,1.5
2022-10-04T12:31:06.568Z,1.2
2022-10-04T12:32:48.067Z,1.3
2022-10-04T12:34:50.792Z,1.2
2022-10-04T12:36:58.947Z,1.2
2022-10-04T12:38:52.369Z,1.3
2022-10-04T12:40:47.410Z,1.1
2022-10-04T12:42:51.756Z,1.3
2022-10-04T12:44:57.053Z,1.2
2022-10-04T12:46:53.880Z,1.3
2022-10-04T12:48:52.532Z,1.5
2022-10-04T12:50:51.725Z,1.7
2022-10-04T12:52:53.055Z,1.7
2022-10-04T12:54:44.405Z,1.6
2022-10-04T12:56:49.137Z,1.7
2022-10-04T12:58:54.438Z,1.7
2022-10-04T13:00:46.785Z,1.6
2022-10-04T13:03:06.195Z,1.4
2022-10-04T13:04:49.376Z,1.4
2022-10-04T13:07:00.046Z,1.5
2022-10-04T13:09:01.399Z,1.5
2022-10-04T13:11:00.779Z,1.5
2022-10-04T13:13:07.240Z,1.5
2022-10-04T13:14:57.250Z,1.4
2022-10-04T13:18:54.541Z,1.7
2022-10-04T13:20:53.818Z,1.6
2022-10-04T13:22:57.020Z,1.5
2022-10-04T13:25:00.801Z,1.6
2022-10-04T13:26:54.730Z,1.9
2022-10-04T13:28:55.318Z,1.8
2022-10-04T13:30:50.075Z,1.5
2022-10-04T13:32:54.449Z,1.5
2022-10-04T13:34:54.386Z,1.3
2022-10-04T13:37:00.493Z,1.3
2022-10-04T13:39:00.668Z,1.7
2022-10-04T13:41:02.699Z,1.6
2022-10-04T13:43:05.376Z,1.9
2022-10-04T13:45:02.634Z,2.4
2022-10-04T13:47:04.012Z,1.9
2022-10-04T13:49:00.655Z,1.7
2022-10-04T13:51:06.051Z,2.2
2022-10-04T13:53:00.958Z,1.6
2022-10-04T13:55:02.372Z,1.2
2022-10-04T13:57:03.127Z,1.4
2022-10-04T13:58:56.963Z,1.6
2022-10-04T14:01:14.477Z,1.6
2022-10-04T14:03:09.530Z,1.5
2022-10-04T14:05:16.659Z,1.4
2022-10-04T14:07:13.638Z,1.6
2022-10-04T14:08:59.660Z,1.3
2022-10-04T14:11:09.253Z,1.5
2022-10-04T14:13:26.048Z,1.2
2022-10-04T14:15:18.893Z,1.4
2022-10-04T14:17:13.545Z,2
2022-10-04T14:19:22.485Z,2.1
2022-10-04T14:21:23.030Z,1.9
2022-10-04T14:23:11.242Z,1.8
2022-10-04T14:25:21.670Z,1.4
2022-10-04T14:28:16.071Z,1.2
2022-10-04T14:29:21.098Z,1.4
2022-10-04T14:31:08.433Z,1.4
2022-10-04T14:33:21.058Z,1.3
2022-10-04T14:34:59.220Z,3.6
2022-10-04T14:37:15.630Z,1.6
2022-10-04T14:39:15.151Z,1.7
2022-10-04T14:41:21.594Z,1.5
2022-10-04T14:43:18.738Z,1.3
2022-10-04T14:45:15.568Z,1.4
2022-10-04T14:47:04.919Z,1.6
2022-10-04T14:49:07.988Z,1.5
2022-10-04T14:51:14.552Z,1.5
2022-10-04T14:53:09.724Z,1.6
2022-10-04T14:55:01.677Z,1.7
2022-10-04T14:57:03.617Z,2
2022-10-04T14:59:03.421Z,1.7
2022-10-04T15:01:11.366Z,1.7
2022-10-04T15:03:17.548Z,2.1
2022-10-04T15:05:27.783Z,2.2
2022-10-04T15:06:57.714Z,1.9
2022-10-04T15:09:15.510Z,2
2022-10-04T15:10:59.271Z,2
2022-10-04T15:13:11.458Z,2
2022-10-04T15:15:21.609Z,1.8
2022-10-04T15:16:59.057Z,2.1
2022-10-04T15:19:01.373Z,1.8
2022-10-04T15:21:00.026Z,1.9
2022-10-04T15:23:08.254Z,2.1
2022-10-04T15:24:56.137Z,1.7
2022-10-04T15:27:22.335Z,1.8
2022-10-04T15:29:06.567Z,2
2022-10-04T15:31:02.488Z,2.2
2022-10-04T15:33:16.966Z,2.4
2022-10-04T15:35:13.075Z,2.5
2022-10-04T15:37:17.789Z,2.7
2022-10-04T15:39:01.860Z,3
2022-10-04T15:41:02.064Z,2.7
2022-10-04T15:43:11.009Z,3.1
2022-10-04T15:45:19.626Z,3.1
2022-10-04T15:47:12.356Z,3.1
2022-10-04T15:49:18.240Z,3.5
2022-10-04T15:51:06.325Z,4.5
2022-10-04T15:53:24.322Z,4.1
2022-10-04T15:55:12.429Z,4.3
2022-10-04T15:57:03.739Z,4.4
2022-10-04T15:59:19.286Z,3.8
2022-10-04T16:01:12.721Z,4
2022-10-04T16:03:16.565Z,3.1
2022-10-04T16:05:11.055Z,3.7
2022-10-04T16:07:10.515Z,3.5
2022-10-04T16:09:12.743Z,4.1
2022-10-04T16:11:17.751Z,4.5
2022-10-04T16:13:28.484Z,3.9
2022-10-04T16:15:11.567Z,5.1
2022-10-04T16:17:18.106Z,4.4
2022-10-04T16:19:13.611Z,4.5
2022-10-04T16:21:05.993Z,3.9
2022-10-04T16:23:30.454Z,4.2
2022-10-04T16:25:35.238Z,4.4
2022-10-04T16:27:24.243Z,3.8
2022-10-04T16:29:15.800Z,3.5
2022-10-04T16:31:21.059Z,3.3
2022-10-04T16:33:30.458Z,3.6
2022-10-04T16:35:05.025Z,3.4
2022-10-04T16:37:14.919Z,3.7
2022-10-04T16:39:01.958Z,3.6
2022-10-04T16:41:10.381Z,3.3
2022-10-04T16:43:06.030Z,3.3
2022-10-04T16:45:32.686Z,3.2
2022-10-04T16:47:19.495Z,3.4
2022-10-04T16:49:17.773Z,3.1
2022-10-04T16:51:27.466Z,3.1
2022-10-04T16:53:23.378Z,2.7
2022-10-04T16:55:28.880Z,3
2022-10-04T16:57:19.788Z,3.2
2022-10-04T16:59:05.239Z,2.9
2022-10-04T17:01:27.528Z,2.6
2022-10-04T17:03:14.381Z,3.2
2022-10-04T17:05:30.067Z,3
2022-10-04T17:07:18.070Z,2.9
2022-10-04T17:09:16.765Z,3.5
2022-10-04T17:11:17.073Z,5
2022-10-04T17:13:20.658Z,4.4
2022-10-04T17:15:23.851Z,4.1
2022-10-04T17:17:18.941Z,3.5
2022-10-04T17:19:26.128Z,3.3
2022-10-04T17:21:20.042Z,3.3
2022-10-04T17:23:21.918Z,2.9
2022-10-04T17:25:23.687Z,3.1
2022-10-04T17:27:24.533Z,3
2022-10-04T17:29:22.130Z,2.8
2022-10-04T17:31:14.188Z,2.7
2022-10-04T17:33:19.326Z,2.7
2022-10-04T17:35:19.331Z,2.7
2022-10-04T17:37:18.274Z,3.1
2022-10-04T17:39:21.719Z,2.8
2022-10-04T17:41:17.625Z,2.6
2022-10-04T17:43:15.969Z,2.7
2022-10-04T17:45:31.388Z,2.7
2022-10-04T17:47:14.779Z,2.4
2022-10-04T17:49:14.731Z,2.2
2022-10-04T17:51:27.916Z,2.9
2022-10-04T17:53:14.598Z,2.5
2022-10-04T17:55:15.276Z,2.6
2022-10-04T17:57:17.535Z,2.1
2022-10-04T17:59:12.646Z,2.3
2022-10-04T18:01:12.126Z,2.6
2022-10-04T18:03:12.704Z,2.1
2022-10-04T18:05:18.547Z,2.4
2022-10-04T18:07:16.339Z,2.4
2022-10-04T18:09:21.825Z,2.3
2022-10-04T18:11:20.656Z,2.5
2022-10-04T18:13:16.832Z,2.5
2022-10-04T18:15:20.200Z,2.6
2022-10-04T18:17:12.864Z,2.5
2022-10-04T18:19:37.578Z,2.5
2022-10-04T18:21:24.560Z,2.7
2022-10-04T18:23:18.278Z,3
2022-10-04T18:25:15.207Z,2.5
2022-10-04T18:27:18.437Z,3.2
2022-10-04T18:29:13.522Z,3
2022-10-04T18:31:23.038Z,2.7
2022-10-04T18:33:14.821Z,2.6
2022-10-04T18:35:23.307Z,2.6
2022-10-04T18:37:19.618Z,2.8
2022-10-04T18:39:19.094Z,3.1
2022-10-04T18:41:18.261Z,2.8
2022-10-04T18:43:25.686Z,2.8
2022-10-04T18:45:19.253Z,3.5
2022-10-04T18:47:17.283Z,3.2
2022-10-04T18:49:16.152Z,3.1
2022-10-04T18:51:24.729Z,2.9
2022-10-04T18:53:28.032Z,2.9
2022-10-04T18:55:25.039Z,3.1
2022-10-04T18:57:22.961Z,3.4
2022-10-04T18:59:23.776Z,3.3
2022-10-04T19:01:22.477Z,3.4
2022-10-04T19:03:20.364Z,3.4
2022-10-04T19:05:18.339Z,3.5
2022-10-04T19:07:14.638Z,3.3
2022-10-04T19:09:19.393Z,3.8
2022-10-04T19:11:19.944Z,3.1
2022-10-04T19:13:29.032Z,3.4
2022-10-04T19:15:27.465Z,3.3
2022-10-04T19:17:20.954Z,3.1
2022-10-04T19:19:31.885Z,3.2
2022-10-04T19:21:25.388Z,3.6
2022-10-04T19:23:25.363Z,3.4
2022-10-04T19:25:30.468Z,3.2
2022-10-04T19:27:25.994Z,3.9
2022-10-04T19:29:22.852Z,3.5
2022-10-04T19:31:22.332Z,4
2022-10-04T19:33:18.507Z,3.8
2022-10-04T19:35:24.589Z,3.9
2022-10-04T19:37:22.104Z,3.9
2022-10-04T19:39:31.097Z,4.4
2022-10-04T19:41:26.312Z,4
2022-10-04T19:43:19.725Z,4.1
2022-10-04T19:45:25.373Z,4
2022-10-04T19:47:30.467Z,4.3
2022-10-04T19:49:24.971Z,4.5
2022-10-04T19:51:19.837Z,4.5
2022-10-04T19:53:18.213Z,4.4
2022-10-04T19:55:21.690Z,4.6
2022-10-04T19:57:14.583Z,5
2022-10-04T19:59:18.117Z,4.9
2022-10-04T20:01:17.208Z,4.4
2022-10-04T20:03:15.419Z,4.7
2022-10-04T20:05:18.292Z,4.3
2022-10-04T20:07:21.335Z,4.6
2022-10-04T20:09:30.491Z,4.4
2022-10-04T20:11:18.664Z,4.5
2022-10-04T20:13:20.648Z,4.5
2022-10-04T20:15:37.309Z,4.4
2022-10-04T20:17:31.798Z,4.7
2022-10-04T20:19:19.399Z,4.3
2022-10-04T20:21:26.486Z,4.9
2022-10-04T20:23:46.559Z,4.6
2022-10-04T20:25:46.141Z,4.2
2022-10-04T20:27:47.690Z,4.5
2022-10-04T20:29:48.450Z,4.1
2022-10-04T20:31:46.588Z,4.1
2022-10-04T20:33:47.414Z,4.2
2022-10-04T20:35:47.191Z,4
2022-10-04T20:37:20.577Z,4.1
2022-10-04T20:39:54.449Z,4.2
2022-10-04T20:41:47.496Z,3.7
2022-10-04T20:43:26.196Z,4.1
2022-10-04T20:45:26.093Z,4.3
2022-10-04T20:47:28.874Z,4
2022-10-04T20:49:18.436Z,4.3
2022-10-04T20:51:22.031Z,4.4
2022-10-04T20:53:21.954Z,3.8
2022-10-04T20:55:22.955Z,3.7
2022-10-04T20:57:19.872Z,4.3
2022-10-04T20:59:21.350Z,3.7
2022-10-04T21:01:22.830Z,4
2022-10-04T21:03:19.514Z,3.8
2022-10-04T21:05:23.617Z,3.6
2022-10-04T21:07:21.501Z,4
2022-10-04T21:09:20.317Z,4.7
2022-10-04T21:11:21.367Z,4.4
2022-10-04T21:13:46.338Z,4.7
2022-10-04T21:15:22.125Z,4.6
2022-10-04T21:17:36.709Z,4.4
2022-10-04T21:19:45.892Z,4.3
2022-10-04T21:21:50.345Z,3.4
2022-10-04T21:23:27.318Z,3.8
2022-10-04T21:25:29.918Z,4.3
2022-10-04T21:27:26.253Z,3.9
2022-10-04T21:29:21.354Z,4
2022-10-04T21:31:22.415Z,4.1
2022-10-04T21:33:21.569Z,4.1
2022-10-04T21:35:22.294Z,4
2022-10-04T21:37:21.794Z,3.7
2022-10-04T21:39:21.688Z,3.6
2022-10-04T21:41:21.755Z,3.9
2022-10-04T21:43:23.129Z,4
2022-10-04T21:45:22.280Z,4.1
2022-10-04T21:47:22.650Z,3.7
2022-10-04T21:49:22.421Z,3.8
2022-10-04T21:51:22.661Z,3.8
2022-10-04T21:53:22.658Z,3.9
2022-10-04T21:55:22.780Z,3.7
2022-10-04T21:57:22.953Z,3.2
2022-10-04T21:59:23.169Z,3.5
2022-10-04T22:01:23.312Z,3
2022-10-04T22:03:23.340Z,3
2022-10-04T22:05:23.510Z,3.2
2022-10-04T22:07:23.707Z,3.4
2022-10-04T22:09:23.761Z,3.1
2022-10-04T22:11:24.333Z,3.3
2022-10-04T22:13:24.358Z,3.5
2022-10-04T22:15:25.841Z,3.7
2022-10-04T22:17:24.354Z,3.2
2022-10-04T22:19:24.583Z,3.1
2022-10-04T22:21:24.791Z,3.2
2022-10-04T22:23:26.662Z,3.4
2022-10-04T22:25:26.640Z,3
2022-10-04T22:27:28.261Z,3.4
2022-10-04T22:29:26.224Z,3.2
2022-10-04T22:31:27.292Z,3.2
2022-10-04T22:33:33.076Z,3.1
2022-10-04T22:35:29.449Z,3
2022-10-04T22:37:25.814Z,2.7
2022-10-04T22:39:25.934Z,3.1
2022-10-04T22:41:28.500Z,3
2022-10-04T22:43:26.186Z,3.3
2022-10-04T22:45:28.755Z,2.9
2022-10-04T22:47:26.908Z,2.9
2022-10-04T22:49:30.577Z,3.1
2022-10-04T22:51:28.483Z,3.4
2022-10-04T22:53:26.864Z,3.1
2022-10-04T22:55:27.012Z,3.3
2022-10-04T22:57:29.321Z,3.6
2022-10-04T22:59:34.021Z,3.4
2022-10-04T23:01:27.523Z,2.9
2022-10-04T23:03:28.840Z,3.3
2022-10-04T23:05:27.680Z,3.4
2022-10-04T23:07:27.770Z,2.5
2022-10-04T23:09:27.875Z,2
2022-10-04T23:11:30.409Z,2
2022-10-04T23:13:28.175Z,1.2
2022-10-04T23:15:28.318Z,1.2
2022-10-04T23:17:30.911Z,1.2
2022-10-04T23:19:30.125Z,1.2
2022-10-04T23:21:32.617Z,1.4
2022-10-04T23:23:30.638Z,1.2
2022-10-04T23:25:29.864Z,1.5
2022-10-04T23:27:29.159Z,1.3
2022-10-04T23:29:32.626Z,1.2
2022-10-04T23:31:29.456Z,1.4
2022-10-04T23:33:29.732Z,1.6
2022-10-04T23:35:32.015Z,1.5
2022-10-04T23:37:31.747Z,1.6
2022-10-04T23:39:32.824Z,1.5
2022-10-04T23:41:30.119Z,1.9
2022-10-04T23:43:30.632Z,2.2
2022-10-04T23:45:30.328Z,2.8
2022-10-04T23:47:33.883Z,2.4
2022-10-04T23:49:30.519Z,2.8
2022-10-04T23:51:30.773Z,2.8
2022-10-04T23:53:32.180Z,3
2022-10-04T23:55:34.516Z,3.4
2022-10-04T23:57:31.084Z,3.4
2022-10-04T23:59:31.293Z,3.4
